Time;durP1;ratioP1;P1;durP2;ratioP2;P2;SDS_P1;SDS_P2;PMS_P1;PMS_P2;Temp;Humidity;BMP_temperature;BMP_pressure;BME280_temperature;BME280_humidity;BME280_pressure;Samples;Min_cycle;Max_cycle;Signal;HPM_P1;HPM_P2
2023/12/06 00:02:16;;;;;;;5.80;4.73;;;;;;;0.52;100.00;99134.31;5027340;28;20200;-61
2023/12/06 00:04:42;;;;;;;8.43;4.97;;;;;;;0.56;100.00;99138.41;5027050;28;20200;-61
2023/12/06 00:07:11;;;;;;;7.63;4.33;;;;;;;0.62;100.00;99133.19;5027105;28;20207;-61
2023/12/06 00:09:38;;;;;;;3.97;2.13;;;;;;;0.64;100.00;99136.50;5027187;28;20212;-61
2023/12/06 00:12:05;;;;;;;8.87;2.97;;;;;;;0.58;100.00;99134.16;5027319;28;20212;-61
2023/12/06 00:14:32;;;;;;;3.00;2.47;;;;;;;0.67;100.00;99131.38;5026969;28;20290;-61
2023/12/06 00:16:59;;;;;;;6.77;3.90;;;;;;;0.73;100.00;99124.47;5027000;28;20200;-60
2023/12/06 00:19:25;;;;;;;4.73;4.30;;;;;;;0.66;100.00;99124.66;5058250;28;20205;-60
2023/12/06 00:21:52;;;;;;;3.67;2.37;;;;;;;0.63;100.00;99119.72;5086986;28;20205;-61
2023/12/06 00:24:20;;;;;;;4.80;2.43;;;;;;;0.59;100.00;99115.69;5087101;28;20201;-61
2023/12/06 00:26:48;;;;;;;7.47;3.17;;;;;;;0.61;100.00;99116.47;5085858;28;20252;-61
2023/12/06 00:29:15;;;;;;;3.50;2.17;;;;;;;0.69;100.00;99108.66;5085298;28;20202;-61
2023/12/06 00:31:42;;;;;;;4.47;1.77;;;;;;;0.72;100.00;99121.13;5085554;28;20312;-60
2023/12/06 00:34:08;;;;;;;6.93;3.57;;;;;;;0.73;100.00;99116.91;5086648;28;20198;-60
2023/12/06 00:36:35;;;;;;;3.43;3.03;;;;;;;0.77;100.00;99115.97;5086781;28;20206;-61
2023/12/06 00:39:03;;;;;;;10.00;4.60;;;;;;;0.78;100.00;99117.59;5086644;28;20198;-61
2023/12/06 00:41:31;;;;;;;4.57;2.17;;;;;;;0.77;100.00;99121.00;5086620;28;20209;-61
2023/12/06 00:44:01;;;;;;;9.23;3.47;;;;;;;0.70;100.00;99111.97;5086445;28;20608;-60
2023/12/06 00:46:29;;;;;;;6.93;2.63;;;;;;;0.72;100.00;99112.78;5086569;28;20236;-61
2023/12/06 00:48:58;;;;;;;4.60;3.57;;;;;;;0.76;100.00;99109.31;5086603;28;20713;-60
2023/12/06 00:51:25;;;;;;;6.40;2.87;;;;;;;0.77;100.00;99108.41;5090882;28;20198;-61
2023/12/06 00:53:51;;;;;;;4.80;2.67;;;;;;;0.71;100.00;99106.09;5109499;28;20200;-61
2023/12/06 00:56:18;;;;;;;6.47;3.43;;;;;;;0.72;100.00;99110.25;5108623;28;20239;-60
2023/12/06 00:58:46;;;;;;;6.43;4.13;;;;;;;0.71;100.00;99099.38;5109183;28;20204;-61
2023/12/06 01:01:13;;;;;;;6.27;3.97;;;;;;;0.71;100.00;99091.81;5109358;28;20197;-61
2023/12/06 01:03:41;;;;;;;6.87;3.57;;;;;;;0.70;100.00;99104.44;5109231;28;20197;-61
2023/12/06 01:06:09;;;;;;;5.77;4.37;;;;;;;0.70;100.00;99096.88;5109377;28;20208;-61
2023/12/06 01:08:36;;;;;;;4.40;2.73;;;;;;;0.63;100.00;99094.56;5109384;28;20205;-61
2023/12/06 01:11:03;;;;;;;5.10;3.50;;;;;;;0.55;100.00;99091.47;5109226;28;20197;-61
2023/12/06 01:13:30;;;;;;;3.50;3.00;;;;;;;0.52;100.00;99086.53;5109544;28;20205;-60
2023/12/06 01:15:58;;;;;;;8.67;3.13;;;;;;;0.50;100.00;99077.41;5108878;28;20243;-61
2023/12/06 01:18:24;;;;;;;9.73;2.73;;;;;;;0.52;100.00;99076.47;5108999;28;20212;-61
2023/12/06 01:20:51;;;;;;;3.90;2.50;;;;;;;0.34;100.00;99072.03;5109342;28;20374;-61
2023/12/06 01:23:18;;;;;;;3.27;2.27;;;;;;;0.37;100.00;99071.94;5109136;28;20519;-61
2023/12/06 01:25:45;;;;;;;3.73;2.83;;;;;;;0.42;100.00;99073.44;5108754;28;20678;-61
2023/12/06 01:28:12;;;;;;;3.53;2.33;;;;;;;0.38;100.00;99068.56;5108923;28;20197;-61
2023/12/06 01:30:38;;;;;;;3.93;2.57;;;;;;;0.42;100.00;99060.84;5108837;28;20205;-61
2023/12/06 01:33:06;;;;;;;4.13;3.07;;;;;;;0.39;100.00;99062.66;5109005;28;20201;-61
2023/12/06 01:35:33;;;;;;;7.00;3.20;;;;;;;0.40;100.00;99064.28;5109005;28;20252;-61
2023/12/06 01:38:00;;;;;;;2.40;2.20;;;;;;;0.45;100.00;99062.47;5109261;28;20544;-61
2023/12/06 01:40:27;;;;;;;4.60;2.50;;;;;;;0.48;100.00;99069.91;5108811;28;20206;-60
2023/12/06 01:42:54;;;;;;;2.90;2.40;;;;;;;0.52;100.00;99068.09;5108715;28;20584;-61
2023/12/06 01:45:21;;;;;;;3.73;2.87;;;;;;;0.55;100.00;99063.78;5108914;28;20200;-60
2023/12/06 01:47:51;;;;;;;3.20;1.70;;;;;;;0.57;100.00;99064.56;5108757;28;20193;-61
2023/12/06 01:50:20;;;;;;;16.57;3.53;;;;;;;0.60;100.00;99064.47;5109036;28;20197;-61
2023/12/06 01:52:47;;;;;;;2.27;2.03;;;;;;;0.59;100.00;99057.00;5108628;28;20194;-60
2023/12/06 01:55:15;;;;;;;7.57;2.70;;;;;;;0.63;100.00;99050.97;5108416;28;20354;-61
2023/12/06 01:57:43;;;;;;;15.10;4.60;;;;;;;0.64;100.00;99042.56;5108733;28;20197;-61
2023/12/06 02:00:10;;;;;;;7.17;3.20;;;;;;;0.67;100.00;99039.97;5108569;28;20670;-61
2023/12/06 02:02:37;;;;;;;5.23;2.47;;;;;;;0.55;100.00;99041.16;5108492;28;20217;-60
2023/12/06 02:05:05;;;;;;;1.57;1.47;;;;;;;0.52;100.00;99038.75;5108787;28;20201;-60
2023/12/06 02:07:34;;;;;;;2.60;2.17;;;;;;;0.56;100.00;99030.25;5110644;28;20201;-60
2023/12/06 02:10:01;;;;;;;6.30;2.47;;;;;;;0.63;100.00;99024.13;5113034;28;20209;-61
2023/12/06 02:12:28;;;;;;;5.13;2.43;;;;;;;0.70;100.00;99016.38;5112691;28;20589;-60
2023/12/06 02:14:57;;;;;;;5.17;2.60;;;;;;;0.69;100.00;99020.59;5112408;28;20233;-61
2023/12/06 02:17:24;;;;;;;2.33;1.70;;;;;;;0.67;100.00;99020.66;5112433;28;20197;-60
2023/12/06 02:19:52;;;;;;;10.03;2.23;;;;;;;0.66;100.00;99013.16;5112517;28;20204;-60
2023/12/06 02:22:19;;;;;;;3.03;1.90;;;;;;;0.63;100.00;99019.09;5112754;28;20220;-60
2023/12/06 02:24:49;;;;;;;4.90;3.40;;;;;;;0.68;100.00;99017.25;5112917;28;20205;-60
2023/12/06 02:27:17;;;;;;;5.47;2.80;;;;;;;0.56;100.00;99012.63;5112429;28;20201;-60
2023/12/06 02:29:44;;;;;;;7.60;3.30;;;;;;;0.60;100.00;99015.88;5112656;28;20198;-60
2023/12/06 02:32:11;;;;;;;1.53;1.27;;;;;;;0.55;100.00;99021.03;5112733;28;20202;-60
2023/12/06 02:34:39;;;;;;;1.73;1.60;;;;;;;0.57;100.00;99019.28;5112121;28;20204;-60
2023/12/06 02:37:09;;;;;;;7.23;2.53;;;;;;;0.62;100.00;99009.09;5112600;28;20236;-60
2023/12/06 02:39:38;;;;;;;5.20;3.27;;;;;;;0.55;100.00;99013.50;5112169;28;20247;-60
2023/12/06 02:42:05;;;;;;;4.33;2.90;;;;;;;0.62;100.00;99027.53;5111932;28;20208;-60
2023/12/06 02:44:34;;;;;;;7.30;3.77;;;;;;;0.66;100.00;99024.03;5112211;28;20212;-60
2023/12/06 02:47:01;;;;;;;2.10;1.20;;;;;;;0.73;100.00;99023.81;5112287;28;20252;-60
2023/12/06 02:49:28;;;;;;;1.60;1.50;;;;;;;0.78;100.00;99027.00;5112118;28;20201;-61
2023/12/06 02:51:55;;;;;;;4.80;2.50;;;;;;;0.82;100.00;99021.03;5112128;28;20668;-60
2023/12/06 02:54:22;;;;;;;4.57;2.20;;;;;;;0.77;100.00;99012.78;5112059;28;20205;-61
2023/12/06 02:56:48;;;;;;;4.10;2.80;;;;;;;0.75;100.00;99022.09;5111758;28;20240;-61
2023/12/06 02:59:15;;;;;;;6.23;3.27;;;;;;;0.73;100.00;99018.78;5111579;28;20202;-61
2023/12/06 03:01:47;;;;;;;3.57;2.77;;;;;;;0.74;100.00;99020.44;5111624;28;20688;-60
2023/12/06 03:04:14;;;;;;;10.87;1.90;;;;;;;0.76;100.00;99017.00;5111606;28;20229;-61
2023/12/06 03:06:41;;;;;;;5.13;3.40;;;;;;;0.78;100.00;99016.94;5111486;28;20689;-61
2023/12/06 03:09:08;;;;;;;8.80;2.00;;;;;;;0.77;100.00;99016.13;5111552;28;20201;-61
2023/12/06 03:11:34;;;;;;;5.73;3.43;;;;;;;0.81;100.00;99019.34;5111647;28;20197;-60
2023/12/06 03:14:01;;;;;;;5.77;2.10;;;;;;;0.83;100.00;99015.91;5111314;28;20208;-61
2023/12/06 03:16:28;;;;;;;2.23;1.93;;;;;;;0.76;100.00;99006.94;5111290;28;20616;-60
2023/12/06 03:18:56;;;;;;;7.50;3.33;;;;;;;0.79;100.00;99006.03;5110849;28;20208;-61
2023/12/06 03:21:23;;;;;;;5.63;2.37;;;;;;;0.83;100.00;99010.06;5111556;28;20205;-60
2023/12/06 03:23:50;;;;;;;5.83;2.63;;;;;;;0.86;100.00;99005.75;5109763;28;20201;-61
2023/12/06 03:26:17;;;;;;;6.13;1.53;;;;;;;0.84;100.00;99009.19;5109638;28;20626;-61
2023/12/06 03:28:43;;;;;;;6.53;3.60;;;;;;;0.78;100.00;98996.81;5110611;28;20591;-61
2023/12/06 03:31:10;;;;;;;4.37;2.83;;;;;;;0.67;100.00;98998.00;5111080;28;20228;-61
2023/12/06 03:33:37;;;;;;;4.80;3.13;;;;;;;0.53;100.00;98996.81;5111273;28;20197;-61
2023/12/06 03:36:06;;;;;;;1.30;1.20;;;;;;;0.59;100.00;98997.44;5111329;28;20233;-61
2023/12/06 03:38:32;;;;;;;4.27;3.23;;;;;;;0.66;100.00;99013.16;5110981;28;20201;-61
2023/12/06 03:41:01;;;;;;;2.43;1.80;;;;;;;0.73;100.00;99013.75;5110918;28;20682;-61
2023/12/06 03:43:28;;;;;;;3.03;2.67;;;;;;;0.73;100.00;99009.56;5110989;28;20212;-61
2023/12/06 03:45:55;;;;;;;6.97;3.00;;;;;;;0.78;100.00;99011.91;5111030;28;20193;-61
2023/12/06 03:48:22;;;;;;;2.63;2.17;;;;;;;0.82;100.00;99016.00;5110912;28;20221;-61
2023/12/06 03:50:48;;;;;;;6.60;3.07;;;;;;;0.79;100.00;99018.59;5110699;28;20201;-61
2023/12/06 03:53:17;;;;;;;11.47;3.13;;;;;;;0.82;100.00;99014.28;5110887;28;20220;-60
2023/12/06 03:55:44;;;;;;;3.63;2.40;;;;;;;0.81;100.00;99019.34;5110454;28;20646;-60
2023/12/06 03:58:11;;;;;;;4.67;3.27;;;;;;;0.82;100.00;99021.03;5110539;27;20266;-60
2023/12/06 04:00:38;;;;;;;7.33;2.83;;;;;;;0.87;100.00;99021.66;5110816;28;20201;-60
2023/12/06 04:03:07;;;;;;;2.90;2.50;;;;;;;0.88;100.00;99018.28;5110563;28;20200;-60
2023/12/06 04:05:34;;;;;;;5.17;3.13;;;;;;;0.82;100.00;99003.41;5110389;28;20244;-60
2023/12/06 04:08:02;;;;;;;1.77;1.57;;;;;;;0.60;100.00;98994.03;5110667;28;20206;-60
2023/12/06 04:10:30;;;;;;;5.47;2.77;;;;;;;0.65;100.00;99009.81;5110368;28;20292;-60
2023/12/06 04:12:57;;;;;;;6.70;1.97;;;;;;;0.73;100.00;99011.25;5110294;28;20201;-60
2023/12/06 04:15:23;;;;;;;6.17;3.37;;;;;;;0.79;100.00;99019.44;5110059;28;20825;-60
2023/12/06 04:17:50;;;;;;;2.30;1.30;;;;;;;0.79;100.00;99023.63;5110373;28;20225;-60
2023/12/06 04:20:17;;;;;;;3.17;2.13;;;;;;;0.70;100.00;99018.88;5110092;28;20198;-60
2023/12/06 04:22:44;;;;;;;2.93;2.07;;;;;;;0.52;100.00;99018.63;5110096;28;20198;-60
2023/12/06 04:25:13;;;;;;;13.80;2.73;;;;;;;0.57;100.00;99018.47;5110308;28;20193;-60
2023/12/06 04:27:41;;;;;;;3.93;2.23;;;;;;;0.64;100.00;99013.22;5109965;28;20209;-60
2023/12/06 04:30:09;;;;;;;6.10;2.67;;;;;;;0.66;100.00;99024.03;5110008;28;20698;-60
2023/12/06 04:32:36;;;;;;;2.87;2.20;;;;;;;0.59;100.00;99022.59;5110286;28;20205;-60
2023/12/06 04:35:04;;;;;;;2.87;1.97;;;;;;;0.63;100.00;99019.09;5109712;28;20197;-61
2023/12/06 04:37:31;;;;;;;2.17;1.87;;;;;;;0.60;100.00;99021.72;5109890;28;20229;-60
2023/12/06 04:39:58;;;;;;;15.13;3.07;;;;;;;0.62;100.00;99025.00;5109690;28;20613;-60
2023/12/06 04:42:25;;;;;;;4.37;2.53;;;;;;;0.63;100.00;99019.09;5110253;28;20209;-60
2023/12/06 04:44:53;;;;;;;4.37;2.03;;;;;;;0.53;100.00;99016.94;5109494;28;20597;-60
2023/12/06 04:47:20;;;;;;;4.53;3.70;;;;;;;0.55;100.00;99021.03;5109707;28;20208;-60
2023/12/06 04:49:46;;;;;;;4.93;2.37;;;;;;;0.61;100.00;99013.31;5109430;28;20666;-60
2023/12/06 04:52:14;;;;;;;2.50;2.23;;;;;;;0.60;100.00;99013.34;5109919;28;20194;-60
2023/12/06 04:54:41;;;;;;;3.93;2.50;;;;;;;0.49;100.00;99016.19;5109513;28;20229;-60
2023/12/06 04:57:07;;;;;;;4.67;1.87;;;;;;;0.38;100.00;99015.75;5109387;28;20233;-60
2023/12/06 04:59:34;;;;;;;2.57;1.80;;;;;;;0.44;100.00;99002.97;5109314;28;20209;-60
2023/12/06 05:02:03;;;;;;;4.00;2.27;;;;;;;0.50;100.00;98995.22;5109400;28;20520;-60
2023/12/06 05:04:29;;;;;;;4.43;2.70;;;;;;;0.50;100.00;98995.22;5109598;28;20197;-60
2023/12/06 05:06:56;;;;;;;3.63;2.83;;;;;;;0.60;100.00;98991.53;5109299;28;20208;-60
2023/12/06 05:09:23;;;;;;;2.67;1.87;;;;;;;0.68;100.00;98992.09;5109648;28;20213;-60
2023/12/06 05:11:50;;;;;;;4.20;1.43;;;;;;;0.72;100.00;98992.00;5109432;28;20201;-60
2023/12/06 05:14:16;;;;;;;2.97;2.10;;;;;;;0.68;100.00;98992.09;5109287;28;20212;-61
2023/12/06 05:16:43;;;;;;;2.33;2.13;;;;;;;0.70;100.00;99001.28;5108936;28;20248;-60
2023/12/06 05:19:11;;;;;;;2.93;1.53;;;;;;;0.76;100.00;99003.63;5109266;28;20224;-60
2023/12/06 05:21:38;;;;;;;1.90;1.70;;;;;;;0.67;100.00;99008.06;5109064;28;20682;-60
2023/12/06 05:24:05;;;;;;;2.93;2.20;;;;;;;0.70;100.00;99013.84;5108938;28;20201;-60
2023/12/06 05:26:32;;;;;;;5.73;2.40;;;;;;;0.70;100.00;99006.31;5108925;28;20213;-60
2023/12/06 05:28:59;;;;;;;5.87;3.13;;;;;;;0.72;100.00;99004.56;5108751;28;20299;-60
2023/12/06 05:31:26;;;;;;;4.83;2.83;;;;;;;0.79;100.00;98998.47;5109174;28;20208;-60
2023/12/06 05:33:53;;;;;;;2.87;2.60;;;;;;;0.79;100.00;99006.03;5109342;28;20201;-60
2023/12/06 05:36:21;;;;;;;3.23;2.57;;;;;;;0.82;100.00;99013.47;5108832;28;20224;-61
2023/12/06 05:38:48;;;;;;;3.90;2.00;;;;;;;0.88;100.00;99008.22;5108719;28;20193;-60
2023/12/06 05:41:14;;;;;;;8.93;3.17;;;;;;;0.94;100.00;99014.75;5108314;28;20198;-60
2023/12/06 05:43:41;;;;;;;2.93;2.30;;;;;;;0.99;100.00;99011.19;5108754;28;20197;-60
2023/12/06 05:46:08;;;;;;;1.57;1.40;;;;;;;1.00;100.00;99017.06;5108924;28;20244;-60
2023/12/06 05:48:35;;;;;;;1.53;1.43;;;;;;;1.02;100.00;99020.31;5108668;28;20200;-60
2023/12/06 05:51:02;;;;;;;2.63;2.43;;;;;;;1.05;100.00;99020.25;5108633;28;20697;-60
2023/12/06 05:53:31;;;;;;;4.53;1.87;;;;;;;1.07;100.00;99023.50;5108664;28;20246;-60
2023/12/06 05:55:57;;;;;;;2.53;2.33;;;;;;;1.08;100.00;99025.97;5108714;28;20233;-60
2023/12/06 05:58:24;;;;;;;8.10;2.17;;;;;;;1.06;100.00;99019.34;5108653;28;20201;-60
2023/12/06 06:00:52;;;;;;;4.70;2.67;;;;;;;1.06;100.00;99030.25;5108585;28;20201;-60
2023/12/06 06:03:19;;;;;;;6.67;3.60;;;;;;;1.10;100.00;99026.72;5108659;28;20239;-60
2023/12/06 06:05:46;;;;;;;7.90;2.73;;;;;;;1.12;100.00;99019.13;5108569;28;20193;-60
2023/12/06 06:08:13;;;;;;;5.53;2.30;;;;;;;1.12;100.00;99031.72;5109117;28;20204;-60
2023/12/06 06:10:41;;;;;;;2.57;2.37;;;;;;;1.13;100.00;99031.69;5108426;28;20202;-60
2023/12/06 06:13:07;;;;;;;3.57;2.57;;;;;;;1.10;100.00;99039.31;5108593;28;20463;-60
2023/12/06 06:15:34;;;;;;;2.20;1.50;;;;;;;1.10;100.00;99039.31;5108459;28;20682;-60
2023/12/06 06:18:03;;;;;;;2.17;1.40;;;;;;;1.12;100.00;99035.06;5108386;28;20228;-60
2023/12/06 06:20:29;;;;;;;3.43;2.57;;;;;;;1.09;100.00;99026.81;5108310;28;20209;-60
2023/12/06 06:22:56;;;;;;;2.43;1.60;;;;;;;1.06;100.00;99032.75;5108237;28;20686;-60
2023/12/06 06:25:24;;;;;;;5.07;1.60;;;;;;;1.11;100.00;99025.88;5108420;28;20201;-60
2023/12/06 06:27:52;;;;;;;2.80;2.07;;;;;;;1.15;100.00;99023.25;5108570;28;20205;-60
2023/12/06 06:30:19;;;;;;;5.10;3.23;;;;;;;1.19;100.00;99030.63;5107698;28;20197;-60
2023/12/06 06:32:46;;;;;;;4.67;1.47;;;;;;;1.16;100.00;99032.44;5106990;28;20218;-60
2023/12/06 06:35:13;;;;;;;3.80;2.47;;;;;;;1.19;100.00;99030.63;5107081;28;20212;-60
2023/12/06 06:37:39;;;;;;;3.13;2.83;;;;;;;1.24;100.00;99031.28;5108547;28;20233;-60
2023/12/06 06:40:08;;;;;;;3.90;2.07;;;;;;;1.29;100.00;99026.09;5108407;28;20204;-60
2023/12/06 06:42:35;;;;;;;1.60;1.50;;;;;;;1.26;100.00;99028.75;5108463;28;20299;-60
2023/12/06 06:45:05;;;;;;;2.40;1.97;;;;;;;1.29;100.00;99028.63;5108172;28;20696;-60
2023/12/06 06:47:32;;;;;;;5.17;2.13;;;;;;;1.27;100.00;99026.16;5108324;28;20285;-60
2023/12/06 06:49:59;;;;;;;4.43;2.87;;;;;;;1.28;100.00;99026.97;5108003;28;20209;-60
2023/12/06 06:52:25;;;;;;;4.77;3.13;;;;;;;1.32;100.00;99018.44;5108516;28;20220;-60
2023/12/06 06:54:53;;;;;;;14.93;3.13;;;;;;;1.34;100.00;99016.69;5110981;28;20217;-60
2023/12/06 06:57:19;;;;;;;4.50;2.43;;;;;;;1.37;100.00;99019.09;5111739;28;20260;-60
2023/12/06 06:59:46;;;;;;;1.97;1.80;;;;;;;1.36;100.00;99020.78;5112213;28;20196;-60
2023/12/06 07:02:14;;;;;;;4.47;1.60;;;;;;;1.35;100.00;99024.19;5111796;28;20228;-60
2023/12/06 07:04:41;;;;;;;2.40;1.80;;;;;;;1.37;100.00;99021.63;5111471;28;20594;-60
2023/12/06 07:07:08;;;;;;;3.33;2.97;;;;;;;1.36;100.00;99017.44;5111808;28;20641;-60
2023/12/06 07:09:35;;;;;;;3.40;2.07;;;;;;;1.20;100.00;99013.84;5111695;28;20204;-60
2023/12/06 07:12:03;;;;;;;2.40;1.97;;;;;;;1.12;100.00;99007.38;5111806;28;20200;-60
2023/12/06 07:14:30;;;;;;;6.50;2.63;;;;;;;1.11;100.00;99010.78;5110107;28;20495;-60
2023/12/06 07:16:59;;;;;;;5.43;2.80;;;;;;;1.22;100.00;99019.63;5111396;28;20693;-60
2023/12/06 07:19:27;;;;;;;3.10;2.80;;;;;;;1.30;100.00;99021.00;5111223;28;20197;-60
2023/12/06 07:21:54;;;;;;;3.47;1.53;;;;;;;1.39;100.00;99022.38;5111583;28;20208;-60
2023/12/06 07:24:21;;;;;;;5.67;2.60;;;;;;;1.46;100.00;99026.34;5111374;28;20201;-61
2023/12/06 07:26:48;;;;;;;8.17;2.70;;;;;;;1.48;100.00;99029.59;5111312;28;20201;-61
2023/12/06 07:29:15;;;;;;;2.93;2.57;;;;;;;1.38;100.00;99023.25;5111185;28;20193;-61
2023/12/06 07:31:42;;;;;;;2.00;1.80;;;;;;;1.28;100.00;99021.94;5111232;28;20197;-61
2023/12/06 07:34:10;;;;;;;3.63;2.17;;;;;;;1.40;100.00;99011.44;5111260;28;20294;-61
2023/12/06 07:36:38;;;;;;;3.93;2.10;;;;;;;1.43;100.00;99025.63;5111135;28;20233;-61
2023/12/06 07:39:05;;;;;;;3.87;2.40;;;;;;;1.36;100.00;99032.56;5110960;28;20216;-61
2023/12/06 07:41:32;;;;;;;2.57;2.13;;;;;;;1.39;100.00;99029.94;5110922;28;20266;-61
2023/12/06 07:43:59;;;;;;;2.70;1.80;;;;;;;1.48;100.00;99024.56;5111088;28;20533;-61
2023/12/06 07:46:26;;;;;;;9.07;3.53;;;;;;;1.55;100.00;99018.44;5110991;28;20197;-61
2023/12/06 07:48:53;;;;;;;4.23;3.03;;;;;;;1.64;100.00;99014.75;5110806;28;20201;-60
2023/12/06 07:51:20;;;;;;;1.80;1.70;;;;;;;1.58;100.00;99015.81;5110829;28;20671;-61
2023/12/06 07:53:48;;;;;;;3.43;2.07;;;;;;;1.59;100.00;99022.47;5110573;28;20641;-61
2023/12/06 07:56:16;;;;;;;9.77;2.50;;;;;;;1.70;100.00;99034.69;5110925;28;20204;-60
2023/12/06 07:58:43;;;;;;;3.93;2.60;;;;;;;1.82;100.00;99038.44;5110528;28;20686;-61
2023/12/06 08:01:09;;;;;;;38.73;19.67;;;;;;;1.91;100.00;99038.09;5110529;28;20224;-60
2023/12/06 08:03:36;;;;;;;9.00;5.87;;;;;;;1.90;100.00;99035.66;5110402;28;20197;-60
2023/12/06 08:06:05;;;;;;;5.70;2.53;;;;;;;1.95;100.00;99037.13;5109996;28;20193;-61
2023/12/06 08:08:33;;;;;;;6.10;2.63;;;;;;;2.02;100.00;99030.94;5110790;28;20209;-61
2023/12/06 08:11:01;;;;;;;5.00;2.83;;;;;;;2.02;100.00;99030.13;5110520;28;20208;-60
2023/12/06 08:13:29;;;;;;;4.13;2.80;;;;;;;2.01;100.00;99039.41;5110351;28;20203;-61
2023/12/06 08:15:56;;;;;;;3.13;2.27;;;;;;;2.06;100.00;99036.69;5110565;28;20202;-60
2023/12/06 08:18:23;;;;;;;3.20;1.90;;;;;;;2.13;100.00;99038.13;5110136;28;20228;-60
2023/12/06 08:20:49;;;;;;;3.73;2.13;;;;;;;2.18;100.00;99036.25;5110349;28;20213;-60
2023/12/06 08:23:16;;;;;;;3.17;1.57;;;;;;;2.06;100.00;99030.84;5110628;28;20198;-60
2023/12/06 08:25:43;;;;;;;2.93;1.83;;;;;;;2.11;100.00;99029.78;5110289;28;20201;-60
2023/12/06 08:28:11;;;;;;;2.87;1.67;;;;;;;2.11;100.00;99034.81;5109905;28;20209;-60
2023/12/06 08:30:38;;;;;;;5.00;2.03;;;;;;;2.07;100.00;99040.06;5110530;28;20193;-61
2023/12/06 08:33:05;;;;;;;5.57;2.07;;;;;;;2.07;100.00;99037.53;5110054;28;20208;-61
2023/12/06 08:35:31;;;;;;;4.13;3.30;;;;;;;1.97;100.00;99032.81;5110134;28;20228;-60
2023/12/06 08:37:58;;;;;;;2.83;2.40;;;;;;;2.06;100.00;99033.34;5110059;28;20321;-60
2023/12/06 08:40:26;;;;;;;36.20;9.33;;;;;;;1.99;100.00;99037.81;5109868;28;20201;-61
2023/12/06 08:42:53;;;;;;;26.20;4.90;;;;;;;1.99;100.00;99041.16;5109818;28;20737;-60
2023/12/06 08:45:21;;;;;;;6.97;3.27;;;;;;;2.02;100.00;99041.03;5109607;28;20194;-60
2023/12/06 08:47:48;;;;;;;6.80;2.97;;;;;;;2.06;100.00;99056.06;5109768;28;20221;-61
2023/12/06 08:50:14;;;;;;;3.20;2.37;;;;;;;2.10;100.00;99052.56;5109878;28;20197;-61
2023/12/06 08:52:42;;;;;;;2.93;2.17;;;;;;;2.04;100.00;99048.56;5109780;28;20296;-60
2023/12/06 08:55:09;;;;;;;2.37;2.10;;;;;;;2.07;100.00;99047.63;5109479;28;20617;-61
2023/12/06 08:57:36;;;;;;;3.77;2.50;;;;;;;2.05;100.00;99045.16;5109628;28;20232;-60
2023/12/06 09:00:07;;;;;;;3.30;1.73;;;;;;;1.99;100.00;99056.28;5109649;28;20201;-60
2023/12/06 09:02:35;;;;;;;2.13;1.87;;;;;;;1.98;100.00;99043.75;5108909;28;20989;-60
2023/12/06 09:05:02;;;;;;;5.83;3.33;;;;;;;2.01;100.00;99034.38;5109086;28;20610;-60
2023/12/06 09:07:29;;;;;;;4.23;2.63;;;;;;;2.05;100.00;99035.06;5109233;28;20201;-60
2023/12/06 09:09:56;;;;;;;8.00;2.37;;;;;;;2.07;100.00;99032.50;5109084;28;20198;-60
2023/12/06 09:12:22;;;;;;;3.33;1.93;;;;;;;2.06;100.00;99030.84;5109536;28;20205;-61
2023/12/06 09:14:49;;;;;;;3.67;1.77;;;;;;;2.00;100.00;99022.63;5109017;28;20681;-61
2023/12/06 09:17:16;;;;;;;2.73;1.83;;;;;;;1.89;100.00;99017.19;5108526;28;20232;-61
2023/12/06 09:19:44;;;;;;;4.37;2.40;;;;;;;1.89;100.00;99014.66;5109467;27;20197;-61
2023/12/06 09:22:11;;;;;;;5.97;2.07;;;;;;;1.94;100.00;99007.72;5109190;28;20202;-61
2023/12/06 09:24:38;;;;;;;2.67;1.63;;;;;;;1.89;100.00;99004.59;5107594;28;20197;-63
2023/12/06 09:27:05;;;;;;;3.53;2.90;;;;;;;1.92;100.00;99008.66;5109007;28;20209;-61
2023/12/06 09:29:32;;;;;;;5.40;2.30;;;;;;;1.90;100.00;99010.44;5109053;28;20224;-60
2023/12/06 09:31:58;;;;;;;5.53;3.27;;;;;;;1.97;100.00;99002.56;5108805;28;20597;-61
2023/12/06 09:34:25;;;;;;;2.07;1.80;;;;;;;2.05;100.00;98999.75;5109215;28;20734;-60
2023/12/06 09:36:53;;;;;;;6.23;3.47;;;;;;;1.95;100.00;98994.25;5108865;28;20208;-60
2023/12/06 09:39:20;;;;;;;3.20;1.57;;;;;;;1.94;100.00;98997.66;5108894;28;20201;-61
2023/12/06 09:41:47;;;;;;;2.80;2.30;;;;;;;2.01;100.00;98996.53;5108971;28;20259;-60
2023/12/06 09:44:16;;;;;;;3.30;1.77;;;;;;;2.00;100.00;98994.88;5109068;28;20224;-61
2023/12/06 09:46:44;;;;;;;3.70;2.73;;;;;;;1.97;100.00;98992.47;5108743;28;20201;-60
2023/12/06 09:49:11;;;;;;;5.20;2.73;;;;;;;2.05;100.00;98989.66;5107848;28;20199;-60
2023/12/06 09:51:38;;;;;;;2.53;2.33;;;;;;;2.10;100.00;98990.31;5108761;28;20197;-60
2023/12/06 09:54:06;;;;;;;3.43;2.23;;;;;;;2.17;100.00;98988.38;5108823;28;20197;-61
2023/12/06 09:56:35;;;;;;;4.70;2.20;;;;;;;2.25;100.00;98983.84;5108739;28;20193;-60
2023/12/06 09:59:03;;;;;;;5.27;3.27;;;;;;;2.20;100.00;98988.25;5108639;28;20256;-60
2023/12/06 10:01:29;;;;;;;4.87;3.33;;;;;;;1.98;100.00;98984.06;5108927;28;20256;-60
2023/12/06 10:03:56;;;;;;;4.17;2.50;;;;;;;2.02;100.00;98990.59;5108989;28;20209;-60
2023/12/06 10:06:23;;;;;;;6.60;3.37;;;;;;;2.05;100.00;98984.63;5108533;28;20197;-60
2023/12/06 10:08:55;;;;;;;4.30;2.57;;;;;;;1.96;100.00;98974.91;5108722;28;20201;-60
2023/12/06 10:11:25;;;;;;;2.20;2.00;;;;;;;1.90;100.00;98973.44;5108655;28;20233;-60
2023/12/06 10:13:53;;;;;;;8.03;2.93;;;;;;;1.82;100.00;98972.91;5108493;28;20208;-60
2023/12/06 10:16:22;;;;;;;2.87;2.17;;;;;;;1.81;100.00;98967.06;5108810;28;20243;-60
2023/12/06 10:18:52;;;;;;;4.70;2.33;;;;;;;1.87;100.00;98966.00;5108228;28;20732;-60
2023/12/06 10:21:20;;;;;;;11.00;3.00;;;;;;;1.93;100.00;98965.75;5108745;28;20205;-61
2023/12/06 10:23:54;;;;;;;6.97;2.97;;;;;;;1.96;100.00;98960.59;5108375;28;20854;-60
2023/12/06 10:26:21;;;;;;;3.63;3.27;;;;;;;1.98;100.00;98961.38;5108707;28;20250;-61
2023/12/06 10:28:49;;;;;;;3.30;2.80;;;;;;;2.03;100.00;98956.94;5110889;28;20197;-60
2023/12/06 10:31:16;;;;;;;4.63;3.13;;;;;;;2.15;100.00;98952.28;5112421;28;20212;-60
2023/12/06 10:33:44;;;;;;;5.53;3.77;;;;;;;2.22;100.00;98951.19;5112208;28;20197;-60
2023/12/06 10:36:11;;;;;;;7.67;4.57;;;;;;;2.29;100.00;98951.75;5112161;28;20197;-60
2023/12/06 10:38:41;;;;;;;5.13;2.77;;;;;;;2.35;100.00;98946.44;5112145;28;20221;-60
2023/12/06 10:41:11;;;;;;;9.43;2.57;;;;;;;2.39;100.00;98941.22;5112333;28;20254;-60
2023/12/06 10:43:39;;;;;;;5.93;2.57;;;;;;;2.35;100.00;98939.69;5112123;28;20298;-60
2023/12/06 10:46:09;;;;;;;3.77;2.93;;;;;;;2.42;100.00;98943.63;5111860;27;20198;-60
2023/12/06 10:48:38;;;;;;;12.43;4.10;;;;;;;2.29;100.00;98934.09;5112202;28;20684;-60
2023/12/06 10:51:06;;;;;;;2.87;2.27;;;;;;;2.31;100.00;98934.84;5111992;28;20204;-60
2023/12/06 10:53:33;;;;;;;2.97;1.93;;;;;;;2.31;100.00;98940.72;5112136;28;20201;-60
2023/12/06 10:56:01;;;;;;;3.27;2.77;;;;;;;2.22;100.00;98936.03;5111742;28;20751;-60
2023/12/06 10:58:28;;;;;;;3.40;2.70;;;;;;;1.95;100.00;98921.16;5111837;28;20320;-60
2023/12/06 11:00:54;;;;;;;3.20;2.90;;;;;;;2.00;100.00;98921.75;5111822;28;20221;-60
2023/12/06 11:03:23;;;;;;;3.20;2.10;;;;;;;2.02;100.00;98924.22;5111912;28;20288;-60
2023/12/06 11:05:54;;;;;;;2.87;2.33;;;;;;;2.16;100.00;98931.25;5111518;28;20216;-60
2023/12/06 11:08:45;;;;;;;6.40;3.17;;;;;;;2.27;100.00;98939.22;5111590;28;20193;-60
2023/12/06 11:11:43;;;;;;;3.83;2.77;;;;;;;2.26;100.00;98927.47;5111507;28;20193;-60
2023/12/06 11:14:24;;;;;;;9.57;4.70;;;;;;;2.25;100.00;98929.16;5098896;28;20204;-60
2023/12/06 11:17:04;;;;;;;7.70;2.67;;;;;;;2.25;100.00;98925.84;5111779;28;20197;-60
2023/12/06 11:19:34;;;;;;;3.23;2.80;;;;;;;2.32;100.00;98921.34;5111605;28;20315;-60
2023/12/06 11:22:02;;;;;;;4.97;4.43;;;;;;;2.38;100.00;98926.94;5111735;28;20205;-60
2023/12/06 11:24:29;;;;;;;3.00;2.53;;;;;;;2.41;100.00;98926.81;5111392;28;20205;-60
2023/12/06 11:26:56;;;;;;;4.70;2.70;;;;;;;2.33;100.00;98933.91;5111196;28;20204;-60
2023/12/06 11:29:24;;;;;;;5.80;3.17;;;;;;;2.26;100.00;98925.75;5111041;28;20252;-60
2023/12/06 11:31:57;;;;;;;4.50;2.40;;;;;;;2.39;100.00;98932.84;5111170;28;20202;-61
2023/12/06 11:34:36;;;;;;;2.83;1.70;;;;;;;2.47;100.00;98926.59;5111015;28;20204;-61
2023/12/06 11:37:06;;;;;;;4.20;2.73;;;;;;;2.46;100.00;98917.38;5111310;28;20201;-61